createdAt,value
2022-08-22T00:02:03.421Z,17.87
2022-08-22T00:02:45.270Z,19.98
2022-08-22T00:02:49.197Z,18.77
2022-08-22T00:02:55.068Z,18.35
2022-08-22T00:02:56.069Z,18.87
2022-08-22T00:02:58.751Z,18.48
2022-08-22T00:03:00.023Z,20.44
2022-08-22T00:03:00.779Z,19.61
2022-08-22T00:04:43.112Z,17.89
2022-08-22T00:07:37.097Z,17.83
2022-08-22T00:10:12.065Z,17.84
2022-08-22T00:13:00.071Z,17.85
2022-08-22T00:15:43.247Z,17.82
2022-08-22T00:18:51.027Z,17.83
2022-08-22T00:21:29.632Z,17.80
2022-08-22T00:24:16.590Z,17.78
2022-08-22T00:27:07.523Z,17.79
2022-08-22T00:29:55.960Z,17.78
2022-08-22T00:32:54.264Z,17.76
2022-08-22T00:35:32.289Z,17.74
2022-08-22T00:38:22.138Z,17.73
2022-08-22T00:41:16.597Z,17.71
2022-08-22T00:44:11.332Z,17.65
2022-08-22T00:46:51.400Z,17.57
2022-08-22T00:49:42.341Z,17.60
2022-08-22T00:52:29.534Z,17.59
2022-08-22T00:55:11.423Z,17.53
2022-08-22T00:58:04.669Z,17.48
2022-08-22T01:00:40.838Z,17.50
2022-08-22T01:03:26.714Z,17.49
2022-08-22T01:06:10.792Z,17.46
2022-08-22T01:08:51.098Z,17.44
2022-08-22T01:12:01.483Z,17.46
2022-08-22T01:14:40.892Z,17.39
2022-08-22T01:17:33.175Z,17.38
2022-08-22T01:20:28.162Z,17.37
2022-08-22T01:23:18.847Z,17.35
2022-08-22T01:26:03.835Z,17.34
2022-08-22T01:28:45.811Z,17.30
2022-08-22T01:31:31.703Z,17.25
2022-08-22T01:34:40.022Z,17.27
2022-08-22T01:37:28.382Z,17.25
2022-08-22T01:40:53.963Z,17.24
2022-08-22T01:44:01.607Z,17.19
2022-08-22T01:46:34.235Z,17.20
2022-08-22T01:49:40.966Z,17.21
2022-08-22T01:52:48.383Z,17.21
2022-08-22T01:55:36.947Z,17.29
2022-08-22T01:58:18.276Z,17.31
2022-08-22T02:01:13.461Z,17.42
2022-08-22T02:03:55.513Z,17.41
2022-08-22T02:06:33.172Z,17.40
2022-08-22T02:09:22.327Z,17.36
2022-08-22T02:12:00.254Z,17.37
2022-08-22T02:14:36.542Z,17.33
2022-08-22T02:17:27.924Z,17.29
2022-08-22T02:20:16.235Z,17.29
2022-08-22T02:23:19.596Z,17.29
2022-08-22T02:25:56.533Z,17.25
2022-08-22T02:28:25.969Z,17.28
2022-08-22T02:30:56.689Z,17.24
2022-08-22T02:33:34.058Z,17.20
2022-08-22T02:36:16.240Z,17.18
2022-08-22T02:38:56.669Z,17.12
2022-08-22T02:41:44.516Z,17.05
2022-08-22T02:44:51.945Z,17.01
2022-08-22T02:47:46.147Z,16.98
2022-08-22T02:50:38.544Z,16.92
2022-08-22T02:53:17.378Z,16.89
2022-08-22T02:55:48.170Z,16.87
2022-08-22T02:58:40.736Z,16.85
2022-08-22T03:01:23.795Z,16.74
2022-08-22T03:03:52.551Z,16.66
2022-08-22T03:06:43.665Z,16.68
2022-08-22T03:09:16.311Z,16.64
2022-08-22T03:12:19.517Z,16.59
2022-08-22T03:15:28.431Z,16.53
2022-08-22T03:18:16.878Z,16.53
2022-08-22T03:20:54.033Z,16.56
2022-08-22T03:23:44.051Z,16.55
2022-08-22T03:26:22.541Z,16.49
2022-08-22T03:29:02.905Z,16.47
2022-08-22T03:31:31.890Z,16.45
2022-08-22T03:34:26.609Z,16.39
2022-08-22T03:37:06.948Z,16.40
2022-08-22T03:39:59.816Z,16.32
2022-08-22T03:42:29.521Z,16.33
2022-08-22T03:44:59.677Z,16.27
2022-08-22T03:47:49.596Z,16.25
2022-08-22T03:50:22.310Z,16.22
2022-08-22T03:53:19.466Z,16.28
2022-08-22T03:56:28.004Z,16.28
2022-08-22T03:59:16.541Z,16.26
2022-08-22T04:02:43.620Z,16.27
2022-08-22T04:05:26.753Z,16.23
2022-08-22T04:08:26.136Z,16.21
2022-08-22T04:11:11.294Z,16.21
2022-08-22T04:14:16.552Z,16.18
2022-08-22T04:16:49.357Z,16.22
2022-08-22T04:19:47.901Z,16.23
2022-08-22T04:22:29.401Z,16.18
2022-08-22T04:24:59.606Z,16.22
2022-08-22T04:27:35.878Z,16.23
2022-08-22T04:30:31.824Z,16.23
2022-08-22T04:33:10.738Z,16.24
2022-08-22T04:36:01.942Z,16.28
2022-08-22T04:38:36.779Z,16.36
2022-08-22T04:41:19.317Z,16.46
2022-08-22T04:43:58.825Z,16.53
2022-08-22T04:46:36.634Z,16.58
2022-08-22T04:49:29.090Z,16.65
2022-08-22T04:52:29.401Z,16.71
2022-08-22T04:55:08.703Z,16.76
2022-08-22T04:57:57.385Z,16.77
2022-08-22T05:00:26.283Z,16.77
2022-08-22T05:02:57.859Z,16.79
2022-08-22T05:05:29.199Z,16.80
2022-08-22T05:07:59.821Z,16.86
2022-08-22T05:10:38.512Z,16.87
2022-08-22T05:13:15.653Z,16.94
2022-08-22T05:15:47.695Z,16.94
2022-08-22T05:18:29.568Z,16.96
2022-08-22T05:21:00.501Z,16.97
2022-08-22T05:23:46.781Z,17.02
2022-08-22T05:26:15.108Z,17.04
2022-08-22T05:28:50.170Z,17.03
2022-08-22T05:31:26.692Z,17.03
2022-08-22T05:33:59.602Z,17.06
2022-08-22T05:36:30.071Z,17.08
2022-08-22T05:39:05.017Z,17.04
2022-08-22T05:41:36.783Z,17.09
2022-08-22T05:44:03.897Z,17.15
2022-08-22T05:46:41.899Z,17.22
2022-08-22T05:49:19.741Z,17.28
2022-08-22T05:52:20.315Z,17.32
2022-08-22T05:55:03.611Z,17.38
2022-08-22T05:57:35.742Z,17.42
2022-08-22T06:00:11.472Z,17.44
2022-08-22T06:03:17.524Z,17.47
2022-08-22T06:05:51.043Z,17.47
2022-08-22T06:08:27.149Z,17.55
2022-08-22T06:10:56.315Z,17.56
2022-08-22T06:13:42.454Z,17.59
2022-08-22T06:16:24.552Z,17.64
2022-08-22T06:18:52.633Z,17.71
2022-08-22T06:21:25.617Z,17.77
2022-08-22T06:23:59.903Z,17.79
2022-08-22T06:26:48.214Z,17.84
2022-08-22T06:29:36.432Z,17.93
2022-08-22T06:32:16.613Z,18.00
2022-08-22T06:35:11.221Z,18.08
2022-08-22T06:37:41.360Z,18.17
2022-08-22T06:40:11.255Z,18.32
2022-08-22T06:42:42.704Z,18.49
2022-08-22T06:45:29.696Z,18.70
2022-08-22T06:48:12.537Z,18.73
2022-08-22T06:50:42.550Z,18.89
2022-08-22T06:53:17.736Z,19.04
2022-08-22T06:56:05.405Z,19.23
2022-08-22T06:58:44.489Z,19.40
2022-08-22T07:01:16.071Z,19.46
2022-08-22T07:03:50.102Z,19.63
2022-08-22T07:06:21.195Z,19.62
2022-08-22T07:08:53.435Z,19.53
2022-08-22T07:11:28.674Z,19.63
2022-08-22T07:14:00.209Z,19.74
2022-08-22T07:16:34.364Z,19.91
2022-08-22T07:19:01.717Z,20.03
2022-08-22T07:21:32.589Z,20.16
2022-08-22T07:24:03.213Z,20.27
2022-08-22T07:27:02.694Z,20.35
2022-08-22T07:29:49.254Z,20.43
2022-08-22T07:32:24.661Z,20.49
2022-08-22T07:34:59.564Z,20.56
2022-08-22T07:37:33.163Z,20.57
2022-08-22T07:40:34.981Z,20.67
2022-08-22T07:43:15.330Z,20.72
2022-08-22T07:46:01.931Z,20.72
2022-08-22T07:48:59.343Z,20.77
2022-08-22T07:51:47.855Z,20.73
2022-08-22T07:54:27.234Z,20.81
2022-08-22T07:57:11.815Z,20.98
2022-08-22T07:59:45.862Z,21.00
2022-08-22T08:02:14.413Z,21.09
2022-08-22T08:04:42.585Z,21.08
2022-08-22T08:07:13.713Z,21.12
2022-08-22T08:09:45.757Z,21.16
2022-08-22T08:12:14.974Z,21.21
2022-08-22T08:14:44.561Z,21.24
2022-08-22T08:17:28.788Z,21.22
2022-08-22T08:20:02.742Z,21.30
2022-08-22T08:22:29.740Z,21.38
2022-08-22T08:24:59.004Z,21.41
2022-08-22T08:27:50.496Z,21.48
2022-08-22T08:30:35.402Z,21.49
2022-08-22T08:33:25.155Z,21.46
2022-08-22T08:36:11.229Z,21.38
2022-08-22T08:38:55.491Z,21.35
2022-08-22T08:41:36.927Z,21.40
2022-08-22T08:44:24.632Z,21.43
2022-08-22T08:47:11.165Z,21.43
2022-08-22T08:49:55.404Z,21.43
2022-08-22T08:52:36.360Z,21.56
2022-08-22T08:55:22.760Z,21.70
2022-08-22T08:58:26.650Z,21.74
2022-08-22T09:01:02.221Z,21.75
2022-08-22T09:03:52.972Z,21.76
2022-08-22T09:06:52.852Z,21.82
2022-08-22T09:09:52.728Z,21.91
2022-08-22T09:16:05.047Z,22.09
2022-08-22T09:19:00.303Z,22.21
2022-08-22T09:22:04.149Z,22.22
2022-08-22T09:24:31.032Z,22.38
2022-08-22T09:27:02.060Z,22.39
2022-08-22T09:29:57.103Z,22.35
2022-08-22T09:32:33.657Z,22.45
2022-08-22T09:35:05.571Z,22.57
2022-08-22T09:37:47.850Z,22.64
2022-08-22T09:40:16.449Z,22.00
2022-08-22T09:43:12.723Z,22.78
2022-08-22T09:45:45.298Z,22.80
2022-08-22T09:48:31.518Z,22.81
2022-08-22T09:51:33.302Z,22.84
2022-08-22T09:54:31.684Z,22.83
2022-08-22T09:57:30.737Z,22.87
2022-08-22T10:00:13.351Z,22.94
2022-08-22T10:03:11.353Z,22.92
2022-08-22T10:05:45.028Z,22.94
2022-08-22T10:08:26.190Z,23.01
2022-08-22T10:11:03.220Z,23.01
2022-08-22T10:14:10.118Z,23.00
2022-08-22T10:16:59.627Z,23.09
2022-08-22T10:19:47.836Z,23.12
2022-08-22T10:22:46.977Z,23.22
2022-08-22T10:25:28.751Z,23.33
2022-08-22T10:28:23.788Z,23.47
2022-08-22T10:31:08.035Z,23.62
2022-08-22T10:33:37.780Z,23.78
2022-08-22T10:36:23.676Z,23.94
2022-08-22T10:38:55.806Z,23.95
2022-08-22T10:41:32.593Z,24.02
2022-08-22T10:44:16.907Z,24.09
2022-08-22T10:47:03.357Z,24.20
2022-08-22T10:49:51.315Z,24.17
2022-08-22T10:52:26.821Z,24.26
2022-08-22T10:55:00.788Z,24.23
2022-08-22T10:57:57.288Z,24.14
2022-08-22T11:00:49.728Z,24.17
2022-08-22T11:03:42.130Z,24.04
2022-08-22T11:06:29.129Z,23.96
2022-08-22T11:09:17.201Z,24.17
2022-08-22T11:11:46.527Z,24.23
2022-08-22T11:14:33.732Z,24.22
2022-08-22T11:17:29.930Z,24.31
2022-08-22T11:20:21.230Z,24.31
2022-08-22T11:23:06.369Z,24.30
2022-08-22T11:25:52.386Z,24.26
2022-08-22T11:28:58.053Z,24.34
2022-08-22T11:31:55.352Z,24.46
2022-08-22T11:34:53.498Z,24.52
2022-08-22T11:37:54.905Z,24.54
2022-08-22T11:40:34.277Z,24.45
2022-08-22T11:43:07.436Z,24.43
2022-08-22T11:45:50.004Z,24.60
2022-08-22T11:48:28.910Z,24.77
2022-08-22T11:51:14.071Z,24.79
2022-08-22T11:53:48.122Z,24.98
2022-08-22T11:56:35.662Z,25.08
2022-08-22T11:59:32.966Z,24.95
2022-08-22T12:02:17.441Z,24.92
2022-08-22T12:05:03.853Z,24.46
2022-08-22T12:07:37.724Z,24.34
2022-08-22T12:10:17.094Z,24.57
2022-08-22T12:13:05.470Z,24.66
2022-08-22T12:15:47.236Z,24.56
2022-08-22T12:18:41.228Z,24.42
2022-08-22T12:21:38.617Z,24.57
2022-08-22T12:24:30.570Z,24.38
2022-08-22T12:27:09.948Z,24.28
2022-08-22T12:30:05.123Z,24.18
2022-08-22T12:32:56.815Z,24.14
2022-08-22T12:35:29.914Z,24.14
2022-08-22T12:38:29.005Z,24.12
2022-08-22T12:41:28.116Z,24.18
2022-08-22T12:44:30.932Z,24.13
2022-08-22T12:47:09.884Z,23.97
2022-08-22T12:50:00.649Z,23.99
2022-08-22T12:52:55.579Z,23.96
2022-08-22T12:56:12.894Z,23.82
2022-08-22T12:59:12.526Z,23.92
2022-08-22T13:01:48.102Z,23.87
2022-08-22T13:04:33.569Z,23.89
2022-08-22T13:07:07.338Z,23.91
2022-08-22T13:09:37.609Z,23.84
2022-08-22T13:12:22.986Z,23.85
2022-08-22T13:14:54.592Z,23.91
2022-08-22T13:17:24.947Z,24.00
2022-08-22T13:20:16.019Z,24.02
2022-08-22T13:22:46.050Z,23.93
2022-08-22T13:25:25.841Z,23.94
2022-08-22T13:28:02.468Z,23.93
2022-08-22T13:30:37.659Z,23.93
2022-08-22T13:33:12.136Z,23.91
2022-08-22T13:35:54.285Z,23.98
2022-08-22T13:38:38.390Z,23.97
2022-08-22T13:41:18.709Z,23.96
2022-08-22T13:44:04.846Z,23.82
2022-08-22T13:47:10.889Z,23.89
2022-08-22T13:49:42.074Z,23.96
2022-08-22T13:52:30.030Z,24.01
2022-08-22T13:55:28.867Z,23.98
2022-08-22T13:58:06.978Z,24.01
2022-08-22T14:01:12.338Z,24.07
2022-08-22T14:03:55.403Z,24.09
2022-08-22T14:06:46.446Z,24.11
2022-08-22T14:09:31.202Z,24.08
2022-08-22T14:12:16.097Z,24.02
2022-08-22T14:14:46.888Z,24.06
2022-08-22T14:17:17.485Z,24.14
2022-08-22T14:19:59.599Z,24.20
2022-08-22T14:22:35.294Z,24.18
2022-08-22T14:25:11.634Z,24.08
2022-08-22T14:27:47.726Z,24.07
2022-08-22T14:30:24.454Z,24.14
2022-08-22T14:33:22.378Z,24.15
2022-08-22T14:35:54.028Z,24.15
2022-08-22T14:38:33.025Z,24.32
2022-08-22T14:41:21.058Z,24.41
2022-08-22T14:44:06.922Z,24.45
2022-08-22T14:46:51.721Z,24.44
2022-08-22T14:49:18.424Z,24.45
2022-08-22T14:51:59.962Z,24.45
2022-08-22T14:54:28.960Z,24.37
2022-08-22T14:56:57.412Z,24.48
2022-08-22T14:59:38.865Z,24.57
2022-08-22T15:02:27.639Z,24.64
2022-08-22T15:04:56.140Z,24.79
2022-08-22T15:07:29.917Z,24.70
2022-08-22T15:10:03.367Z,24.90
2022-08-22T15:12:43.570Z,24.80
2022-08-22T15:15:41.125Z,24.91
2022-08-22T15:18:28.433Z,25.05
2022-08-22T15:21:11.439Z,25.03
2022-08-22T15:23:52.878Z,24.89
2022-08-22T15:26:40.946Z,24.94
2022-08-22T15:29:20.765Z,24.87
2022-08-22T15:31:54.626Z,24.90
2022-08-22T15:34:37.844Z,24.89
2022-08-22T15:37:25.493Z,24.99
2022-08-22T15:39:57.843Z,24.99
2022-08-22T15:42:33.176Z,24.92
2022-08-22T15:45:00.977Z,24.86
2022-08-22T15:47:47.355Z,24.86
2022-08-22T15:50:58.320Z,24.83
2022-08-22T15:53:34.204Z,24.87
2022-08-22T15:56:06.975Z,24.84
2022-08-22T15:58:48.922Z,24.87
2022-08-22T16:01:22.522Z,24.74
2022-08-22T16:04:06.708Z,24.71
2022-08-22T16:07:01.408Z,24.62
2022-08-22T16:09:44.462Z,24.60
2022-08-22T16:12:26.059Z,24.58
2022-08-22T16:14:53.354Z,24.61
2022-08-22T16:17:29.258Z,24.62
2022-08-22T16:20:19.421Z,24.58
2022-08-22T16:22:59.290Z,24.43
2022-08-22T16:25:50.376Z,24.41
2022-08-22T16:28:56.882Z,24.43
2022-08-22T16:31:27.314Z,24.30
2022-08-22T16:33:59.009Z,24.29
2022-08-22T16:36:41.033Z,24.34
2022-08-22T16:39:41.214Z,24.19
2022-08-22T16:42:22.119Z,24.30
2022-08-22T16:45:06.878Z,24.33
2022-08-22T16:47:33.448Z,24.30
2022-08-22T16:50:24.323Z,24.30
2022-08-22T16:52:53.998Z,24.31
2022-08-22T16:55:44.449Z,24.31
2022-08-22T16:58:40.267Z,24.23
2022-08-22T17:01:38.250Z,24.06
2022-08-22T17:04:32.073Z,24.05
2022-08-22T17:06:58.713Z,24.08
2022-08-22T17:09:50.056Z,24.01
2022-08-22T17:12:37.120Z,24.02
2022-08-22T17:15:21.294Z,24.04
2022-08-22T17:17:53.912Z,24.03
2022-08-22T17:20:37.768Z,23.93
2022-08-22T17:23:22.987Z,23.91
2022-08-22T17:26:04.096Z,23.69
2022-08-22T17:28:52.604Z,23.61
2022-08-22T17:31:38.722Z,23.62
2022-08-22T17:34:47.412Z,23.73
2022-08-22T17:37:26.132Z,23.65
2022-08-22T17:40:17.729Z,23.68
2022-08-22T17:43:48.680Z,23.62
2022-08-22T17:46:31.319Z,23.53
2022-08-22T17:49:12.837Z,23.48
2022-08-22T17:51:51.061Z,23.44
2022-08-22T17:54:31.792Z,23.45
2022-08-22T17:57:14.617Z,23.39
2022-08-22T17:59:59.266Z,23.25
2022-08-22T18:02:41.676Z,23.01
2022-08-22T18:05:19.500Z,23.12
2022-08-22T18:08:01.677Z,22.86
2022-08-22T18:10:47.760Z,22.96
2022-08-22T18:13:49.506Z,22.95
2022-08-22T18:16:33.903Z,22.69
2022-08-22T18:19:17.930Z,22.61
2022-08-22T18:22:04.677Z,22.76
2022-08-22T18:24:42.056Z,22.65
2022-08-22T18:27:34.981Z,22.53
2022-08-22T18:30:19.880Z,22.45
2022-08-22T18:32:47.061Z,22.51
2022-08-22T18:35:41.105Z,22.46
2022-08-22T18:38:24.104Z,22.36
2022-08-22T18:41:05.431Z,22.41
2022-08-22T18:44:50.960Z,22.06
2022-08-22T18:46:38.501Z,22.20
2022-08-22T18:49:34.407Z,22.20
2022-08-22T18:52:18.047Z,22.13
2022-08-22T18:55:15.537Z,22.01
2022-08-22T18:58:07.185Z,22.08
2022-08-22T19:01:04.830Z,22.03
2022-08-22T19:03:43.627Z,21.98
2022-08-22T19:06:32.200Z,21.73
2022-08-22T19:12:18.439Z,21.46
2022-08-22T19:15:06.985Z,21.63
2022-08-22T19:17:58.718Z,21.40
2022-08-22T19:20:53.785Z,21.44
2022-08-22T19:23:32.508Z,21.33
2022-08-22T19:26:23.464Z,21.27
2022-08-22T19:28:57.953Z,21.20
2022-08-22T19:31:57.783Z,21.07
2022-08-22T19:34:33.013Z,21.09
2022-08-22T19:37:32.703Z,21.04
2022-08-22T19:40:16.901Z,20.72
2022-08-22T19:42:56.205Z,20.73
2022-08-22T19:45:30.802Z,20.77
2022-08-22T19:51:41.057Z,20.68
2022-08-22T19:54:41.964Z,20.74
2022-08-22T19:57:20.262Z,20.58
2022-08-22T20:00:40.584Z,20.77
2022-08-22T20:03:41.777Z,20.63
2022-08-22T20:06:43.390Z,20.56
2022-08-22T20:09:40.899Z,20.81
2022-08-22T20:12:47.676Z,20.51
2022-08-22T20:15:26.602Z,20.49
2022-08-22T20:18:47.241Z,20.63
2022-08-22T20:21:07.331Z,20.29
2022-08-22T20:23:34.624Z,20.45
2022-08-22T20:26:08.155Z,20.29
2022-08-22T20:32:21.700Z,20.46
2022-08-22T20:35:06.370Z,20.18
2022-08-22T20:38:08.524Z,20.17
2022-08-22T20:40:57.379Z,20.42
2022-08-22T20:43:34.588Z,20.40
2022-08-22T20:46:44.041Z,20.34
2022-08-22T20:49:23.612Z,20.10
2022-08-22T20:52:00.717Z,20.11
2022-08-22T20:54:33.087Z,20.20
2022-08-22T20:57:03.025Z,19.96
2022-08-22T20:59:41.628Z,19.99
2022-08-22T21:02:29.586Z,19.78
2022-08-22T21:05:14.581Z,19.86
2022-08-22T21:08:10.074Z,19.69
2022-08-22T21:10:57.887Z,19.78
2022-08-22T21:13:48.487Z,19.85
2022-08-22T21:16:33.381Z,19.80
2022-08-22T21:19:04.179Z,19.65
2022-08-22T21:21:34.873Z,19.51
2022-08-22T21:24:11.697Z,19.75
2022-08-22T21:26:50.111Z,19.59
2022-08-22T21:29:16.671Z,19.69
2022-08-22T21:31:51.895Z,19.71
2022-08-22T21:34:26.526Z,19.47
2022-08-22T21:37:02.618Z,19.70
2022-08-22T21:39:47.737Z,19.62
2022-08-22T21:42:36.319Z,19.36
2022-08-22T21:45:15.954Z,19.37
2022-08-22T21:47:45.490Z,19.31
2022-08-22T21:50:25.145Z,19.44
2022-08-22T21:53:10.134Z,19.44
2022-08-22T21:55:43.166Z,19.35
2022-08-22T21:59:00.479Z,19.22
2022-08-22T22:01:32.752Z,19.24
2022-08-22T22:04:03.283Z,19.18
2022-08-22T22:06:32.277Z,19.18
2022-08-22T22:08:59.014Z,19.11
2022-08-22T22:11:29.748Z,19.23
2022-08-22T22:13:59.060Z,19.01
2022-08-22T22:16:28.350Z,19.09
2022-08-22T22:18:58.226Z,19.12
2022-08-22T22:21:24.847Z,19.46
2022-08-22T22:23:52.483Z,19.42
2022-08-22T22:26:21.009Z,19.51
2022-08-22T22:28:51.206Z,19.40
2022-08-22T22:31:18.590Z,19.62
2022-08-22T22:33:45.734Z,19.44
2022-08-22T22:36:18.176Z,19.56
2022-08-22T22:38:44.945Z,19.43
2022-08-22T22:41:17.188Z,19.54
2022-08-22T22:43:45.390Z,19.31
2022-08-22T22:46:14.580Z,19.67
2022-08-22T22:48:41.400Z,19.65
2022-08-22T22:51:09.880Z,19.53
2022-08-22T22:53:38.358Z,19.52
2022-08-22T22:56:09.241Z,19.53
2022-08-22T22:58:37.487Z,19.54
2022-08-22T23:01:13.209Z,19.68
2022-08-22T23:03:40.468Z,19.43
2022-08-22T23:06:12.206Z,19.65
2022-08-22T23:08:40.316Z,19.62
2022-08-22T23:11:12.461Z,19.67
2022-08-22T23:13:42.954Z,19.70
2022-08-22T23:16:14.195Z,19.53
2022-08-22T23:18:45.405Z,19.44
2022-08-22T23:21:22.001Z,19.42
2022-08-22T23:23:49.619Z,19.51
2022-08-22T23:26:16.988Z,19.29
2022-08-22T23:28:44.346Z,19.49
2022-08-22T23:31:34.964Z,19.40
2022-08-22T23:34:07.969Z,19.49
2022-08-22T23:36:37.359Z,19.50
2022-08-22T23:39:06.835Z,19.50
2022-08-22T23:41:36.778Z,19.40
2022-08-22T23:44:05.678Z,19.31
2022-08-22T23:46:32.829Z,19.40
2022-08-22T23:49:02.470Z,19.46
2022-08-22T23:51:29.591Z,19.44
2022-08-22T23:53:57.958Z,19.40
2022-08-22T23:56:27.556Z,19.57
2022-08-22T23:58:54.613Z,19.53
